sensor_id;sensor_type;location;lat;lon;timestamp;pressure;altitude;pressure_sealevel;temperature;humidity
18527;BME280;9393;42.158;24.748;2023-06-05T00:01:39;100039.50;;;18.33;92.97
18527;BME280;9393;42.158;24.748;2023-06-05T00:04:43;100044.38;;;18.59;91.71
18527;BME280;9393;42.158;24.748;2023-06-05T00:07:47;100046.06;;;18.75;90.36
18527;BME280;9393;42.158;24.748;2023-06-05T00:10:50;100035.91;;;19.07;88.49
18527;BME280;9393;42.158;24.748;2023-06-05T00:13:56;100032.88;;;19.10;87.90
18527;BME280;9393;42.158;24.748;2023-06-05T00:16:59;100028.91;;;18.85;89.14
18527;BME280;9393;42.158;24.748;2023-06-05T00:20:04;100038.28;;;18.73;89.78
18527;BME280;9393;42.158;24.748;2023-06-05T00:23:12;100030.63;;;18.93;88.50
18527;BME280;9393;42.158;24.748;2023-06-05T00:26:17;100034.13;;;18.41;90.73
18527;BME280;9393;42.158;24.748;2023-06-05T00:29:23;100029.00;;;18.62;89.38
18527;BME280;9393;42.158;24.748;2023-06-05T00:32:28;100028.53;;;18.59;90.21
18527;BME280;9393;42.158;24.748;2023-06-05T00:35:31;100029.97;;;18.47;90.12
18527;BME280;9393;42.158;24.748;2023-06-05T00:38:35;100043.00;;;18.11;92.03
18527;BME280;9393;42.158;24.748;2023-06-05T00:41:39;100033.31;;;18.03;91.83
18527;BME280;9393;42.158;24.748;2023-06-05T00:44:45;100024.56;;;18.26;90.54
18527;BME280;9393;42.158;24.748;2023-06-05T00:47:52;100026.91;;;18.21;90.71
18527;BME280;9393;42.158;24.748;2023-06-05T00:50:55;100021.75;;;18.42;89.05
18527;BME280;9393;42.158;24.748;2023-06-05T00:53:59;100023.25;;;18.22;88.15
18527;BME280;9393;42.158;24.748;2023-06-05T00:57:04;100028.03;;;18.26;87.90
18527;BME280;9393;42.158;24.748;2023-06-05T01:00:11;100034.31;;;18.40;87.23
18527;BME280;9393;42.158;24.748;2023-06-05T01:03:16;100038.66;;;18.70;84.82
18527;BME280;9393;42.158;24.748;2023-06-05T01:06:22;100041.31;;;18.70;84.00
18527;BME280;9393;42.158;24.748;2023-06-05T01:09:26;100037.69;;;18.86;83.25
18527;BME280;9393;42.158;24.748;2023-06-05T01:12:35;100044.41;;;19.03;82.32
18527;BME280;9393;42.158;24.748;2023-06-05T01:15:41;100038.88;;;19.34;80.72
18527;BME280;9393;42.158;24.748;2023-06-05T01:18:45;100045.41;;;19.38;80.19
18527;BME280;9393;42.158;24.748;2023-06-05T01:21:49;100046.63;;;19.21;80.27
18527;BME280;9393;42.158;24.748;2023-06-05T01:24:54;100043.44;;;19.40;79.66
18527;BME280;9393;42.158;24.748;2023-06-05T01:28:04;100043.78;;;19.51;78.76
18527;BME280;9393;42.158;24.748;2023-06-05T01:31:11;100049.56;;;19.11;78.40
18527;BME280;9393;42.158;24.748;2023-06-05T01:34:18;100042.31;;;19.34;78.80
18527;BME280;9393;42.158;24.748;2023-06-05T01:37:23;100038.31;;;19.38;78.27
18527;BME280;9393;42.158;24.748;2023-06-05T01:40:31;100044.09;;;19.42;77.83
18527;BME280;9393;42.158;24.748;2023-06-05T01:43:36;100055.00;;;19.53;77.25
18527;BME280;9393;42.158;24.748;2023-06-05T01:46:40;100053.19;;;19.54;76.71
18527;BME280;9393;42.158;24.748;2023-06-05T01:49:44;100055.94;;;19.31;77.79
18527;BME280;9393;42.158;24.748;2023-06-05T01:52:48;100054.88;;;19.11;78.38
18527;BME280;9393;42.158;24.748;2023-06-05T01:55:56;100064.97;;;19.37;77.40
18527;BME280;9393;42.158;24.748;2023-06-05T01:59:00;100059.53;;;19.09;78.44
18527;BME280;9393;42.158;24.748;2023-06-05T02:02:09;100066.72;;;19.15;78.30
18527;BME280;9393;42.158;24.748;2023-06-05T02:05:15;100060.00;;;18.69;81.30
18527;BME280;9393;42.158;24.748;2023-06-05T02:08:19;100074.84;;;18.84;81.53
18527;BME280;9393;42.158;24.748;2023-06-05T02:11:26;100065.00;;;18.78;82.42
18527;BME280;9393;42.158;24.748;2023-06-05T02:14:30;100071.47;;;18.61;83.65
18527;BME280;9393;42.158;24.748;2023-06-05T02:17:38;100071.13;;;18.79;83.06
18527;BME280;9393;42.158;24.748;2023-06-05T02:20:42;100078.28;;;18.70;83.25
18527;BME280;9393;42.158;24.748;2023-06-05T02:23:46;100075.47;;;18.86;82.47
18527;BME280;9393;42.158;24.748;2023-06-05T02:26:53;100082.94;;;18.68;83.51
18527;BME280;9393;42.158;24.748;2023-06-05T02:29:57;100084.41;;;18.85;82.56
18527;BME280;9393;42.158;24.748;2023-06-05T02:33:01;100076.75;;;18.90;81.49
18527;BME280;9393;42.158;24.748;2023-06-05T02:36:06;100072.38;;;18.97;80.71
18527;BME280;9393;42.158;24.748;2023-06-05T02:39:10;100069.38;;;18.34;82.79
18527;BME280;9393;42.158;24.748;2023-06-05T02:42:15;100069.72;;;18.31;83.54
18527;BME280;9393;42.158;24.748;2023-06-05T02:45:21;100065.34;;;18.38;82.53
18527;BME280;9393;42.158;24.748;2023-06-05T02:48:25;100062.88;;;18.59;82.31
18527;BME280;9393;42.158;24.748;2023-06-05T02:51:30;100063.38;;;18.40;83.58
18527;BME280;9393;42.158;24.748;2023-06-05T02:54:34;100065.56;;;18.13;84.47
18527;BME280;9393;42.158;24.748;2023-06-05T02:57:42;100066.56;;;17.90;86.29
18527;BME280;9393;42.158;24.748;2023-06-05T03:00:52;100074.00;;;18.32;84.40
18527;BME280;9393;42.158;24.748;2023-06-05T03:03:56;100066.69;;;18.19;85.28
18527;BME280;9393;42.158;24.748;2023-06-05T03:07:04;100066.19;;;18.38;83.29
18527;BME280;9393;42.158;24.748;2023-06-05T03:10:08;100070.06;;;18.50;82.84
18527;BME280;9393;42.158;24.748;2023-06-05T03:13:14;100067.72;;;18.70;81.78
18527;BME280;9393;42.158;24.748;2023-06-05T03:16:18;100058.66;;;18.50;81.81
18527;BME280;9393;42.158;24.748;2023-06-05T03:19:26;100068.53;;;18.56;80.23
18527;BME280;9393;42.158;24.748;2023-06-05T03:22:34;100059.25;;;18.60;79.71
18527;BME280;9393;42.158;24.748;2023-06-05T03:25:37;100052.97;;;18.61;78.72
18527;BME280;9393;42.158;24.748;2023-06-05T03:28:43;100050.13;;;18.25;78.70
18527;BME280;9393;42.158;24.748;2023-06-05T03:31:47;100048.41;;;18.32;78.35
18527;BME280;9393;42.158;24.748;2023-06-05T03:34:51;100043.50;;;18.29;78.61
18527;BME280;9393;42.158;24.748;2023-06-05T03:37:55;100041.16;;;18.49;77.03
18527;BME280;9393;42.158;24.748;2023-06-05T03:40:58;100034.97;;;18.04;79.00
18527;BME280;9393;42.158;24.748;2023-06-05T03:44:04;100020.63;;;17.84;79.76
18527;BME280;9393;42.158;24.748;2023-06-05T03:47:09;100029.47;;;17.91;79.44
18527;BME280;9393;42.158;24.748;2023-06-05T03:50:13;100026.53;;;17.63;80.35
18527;BME280;9393;42.158;24.748;2023-06-05T03:53:18;100032.41;;;17.74;80.55
18527;BME280;9393;42.158;24.748;2023-06-05T03:56:26;100043.28;;;17.93;78.04
18527;BME280;9393;42.158;24.748;2023-06-05T03:59:42;100045.94;;;18.31;77.83
18527;BME280;9393;42.158;24.748;2023-06-05T04:02:46;100044.47;;;18.65;75.95
18527;BME280;9393;42.158;24.748;2023-06-05T04:05:50;100042.56;;;18.59;76.21
18527;BME280;9393;42.158;24.748;2023-06-05T04:08:54;100040.13;;;18.58;75.95
18527;BME280;9393;42.158;24.748;2023-06-05T04:11:58;100031.69;;;18.40;75.81
18527;BME280;9393;42.158;24.748;2023-06-05T04:15:07;100036.13;;;18.91;72.99
18527;BME280;9393;42.158;24.748;2023-06-05T04:18:14;100039.00;;;18.96;73.16
18527;BME280;9393;42.158;24.748;2023-06-05T04:21:20;100043.47;;;19.10;72.09
18527;BME280;9393;42.158;24.748;2023-06-05T04:24:24;100037.03;;;18.98;71.46
18527;BME280;9393;42.158;24.748;2023-06-05T04:27:28;100040.13;;;18.87;72.47
18527;BME280;9393;42.158;24.748;2023-06-05T04:30:33;100040.94;;;19.02;71.66
18527;BME280;9393;42.158;24.748;2023-06-05T04:33:37;100046.56;;;19.14;71.25
18527;BME280;9393;42.158;24.748;2023-06-05T04:36:41;100052.13;;;19.34;70.46
18527;BME280;9393;42.158;24.748;2023-06-05T04:39:45;100055.03;;;19.24;70.93
18527;BME280;9393;42.158;24.748;2023-06-05T04:42:48;100061.66;;;19.85;69.38
18527;BME280;9393;42.158;24.748;2023-06-05T04:45:56;100068.19;;;19.68;68.49
18527;BME280;9393;42.158;24.748;2023-06-05T04:49:03;100067.94;;;19.63;69.16
18527;BME280;9393;42.158;24.748;2023-06-05T04:52:07;100073.13;;;19.71;68.47
18527;BME280;9393;42.158;24.748;2023-06-05T04:55:11;100068.19;;;19.89;68.11
18527;BME280;9393;42.158;24.748;2023-06-05T04:58:18;100073.81;;;20.01;67.97
18527;BME280;9393;42.158;24.748;2023-06-05T05:01:23;100085.09;;;20.31;67.93
18527;BME280;9393;42.158;24.748;2023-06-05T05:04:27;100083.91;;;19.91;69.31
18527;BME280;9393;42.158;24.748;2023-06-05T05:07:31;100089.44;;;20.17;67.44
18527;BME280;9393;42.158;24.748;2023-06-05T05:10:36;100092.06;;;20.17;67.09
18527;BME280;9393;42.158;24.748;2023-06-05T05:13:42;100095.00;;;20.22;66.95
18527;BME280;9393;42.158;24.748;2023-06-05T05:16:48;100095.66;;;20.52;66.33
18527;BME280;9393;42.158;24.748;2023-06-05T05:19:53;100097.88;;;20.48;66.49
18527;BME280;9393;42.158;24.748;2023-06-05T05:22:58;100097.94;;;20.55;66.63
18527;BME280;9393;42.158;24.748;2023-06-05T05:26:03;100102.38;;;20.27;67.58
18527;BME280;9393;42.158;24.748;2023-06-05T05:29:08;100101.09;;;20.23;67.53
18527;BME280;9393;42.158;24.748;2023-06-05T05:32:13;100099.09;;;20.74;66.77
18527;BME280;9393;42.158;24.748;2023-06-05T05:35:17;100105.69;;;20.84;65.83
18527;BME280;9393;42.158;24.748;2023-06-05T05:38:22;100110.00;;;20.85;65.34
18527;BME280;9393;42.158;24.748;2023-06-05T05:41:25;100106.69;;;21.11;64.44
18527;BME280;9393;42.158;24.748;2023-06-05T05:44:29;100119.81;;;21.19;64.41
18527;BME280;9393;42.158;24.748;2023-06-05T05:47:34;100110.88;;;20.99;65.51
18527;BME280;9393;42.158;24.748;2023-06-05T05:50:39;100117.81;;;20.72;66.90
18527;BME280;9393;42.158;24.748;2023-06-05T05:53:43;100118.94;;;20.56;67.92
18527;BME280;9393;42.158;24.748;2023-06-05T05:56:47;100122.50;;;20.70;67.81
18527;BME280;9393;42.158;24.748;2023-06-05T05:59:51;100120.66;;;20.43;68.71
18527;BME280;9393;42.158;24.748;2023-06-05T06:02:56;100121.91;;;20.68;68.01
18527;BME280;9393;42.158;24.748;2023-06-05T06:06:01;100112.50;;;21.00;67.73
18527;BME280;9393;42.158;24.748;2023-06-05T06:09:06;100110.16;;;21.59;65.62
18527;BME280;9393;42.158;24.748;2023-06-05T06:12:11;100111.00;;;21.59;65.56
18527;BME280;9393;42.158;24.748;2023-06-05T06:15:15;100106.56;;;21.86;64.83
18527;BME280;9393;42.158;24.748;2023-06-05T06:18:21;100105.78;;;21.86;65.57
18527;BME280;9393;42.158;24.748;2023-06-05T06:21:25;100102.50;;;23.15;61.44
18527;BME280;9393;42.158;24.748;2023-06-05T06:24:29;100097.28;;;23.53;59.65
18527;BME280;9393;42.158;24.748;2023-06-05T06:27:33;100096.84;;;22.98;61.03
18527;BME280;9393;42.158;24.748;2023-06-05T06:30:37;100097.09;;;23.54;59.40
18527;BME280;9393;42.158;24.748;2023-06-05T06:33:42;100096.31;;;23.28;59.62
18527;BME280;9393;42.158;24.748;2023-06-05T06:36:46;100097.78;;;24.12;58.03
18527;BME280;9393;42.158;24.748;2023-06-05T06:39:51;100108.72;;;24.79;56.25
18527;BME280;9393;42.158;24.748;2023-06-05T06:42:55;100111.28;;;24.42;57.34
18527;BME280;9393;42.158;24.748;2023-06-05T06:46:19;100107.50;;;25.36;56.03
18527;BME280;9393;42.158;24.748;2023-06-05T06:49:24;100108.00;;;24.90;57.95
18527;BME280;9393;42.158;24.748;2023-06-05T06:52:28;100104.47;;;24.71;60.03
18527;BME280;9393;42.158;24.748;2023-06-05T06:55:32;100104.50;;;24.46;60.97
18527;BME280;9393;42.158;24.748;2023-06-05T06:58:36;100100.84;;;24.41;60.46
18527;BME280;9393;42.158;24.748;2023-06-05T07:01:43;100094.25;;;24.68;59.92
18527;BME280;9393;42.158;24.748;2023-06-05T07:04:49;100102.13;;;24.81;59.26
18527;BME280;9393;42.158;24.748;2023-06-05T07:07:55;100094.78;;;24.52;59.80
18527;BME280;9393;42.158;24.748;2023-06-05T07:11:03;100096.78;;;24.81;59.11
18527;BME280;9393;42.158;24.748;2023-06-05T07:14:07;100096.59;;;24.33;59.80
18527;BME280;9393;42.158;24.748;2023-06-05T07:17:11;100083.59;;;24.19;60.01
18527;BME280;9393;42.158;24.748;2023-06-05T07:20:16;100084.16;;;23.96;61.18
18527;BME280;9393;42.158;24.748;2023-06-05T07:23:20;100079.13;;;24.12;60.73
18527;BME280;9393;42.158;24.748;2023-06-05T07:26:24;100083.34;;;24.27;60.69
18527;BME280;9393;42.158;24.748;2023-06-05T07:29:30;100082.00;;;23.73;62.33
18527;BME280;9393;42.158;24.748;2023-06-05T07:32:33;100082.25;;;24.03;62.06
18527;BME280;9393;42.158;24.748;2023-06-05T07:35:39;100090.63;;;24.06;61.73
18527;BME280;9393;42.158;24.748;2023-06-05T07:38:42;100084.19;;;24.21;61.77
18527;BME280;9393;42.158;24.748;2023-06-05T07:41:46;100095.19;;;23.93;62.98
18527;BME280;9393;42.158;24.748;2023-06-05T07:44:50;100088.81;;;24.00;62.68
18527;BME280;9393;42.158;24.748;2023-06-05T07:47:54;100101.13;;;24.33;61.90
18527;BME280;9393;42.158;24.748;2023-06-05T07:50:59;100096.09;;;24.43;61.61
18527;BME280;9393;42.158;24.748;2023-06-05T07:54:03;100099.28;;;24.76;60.07
18527;BME280;9393;42.158;24.748;2023-06-05T07:57:07;100094.72;;;24.58;60.58
18527;BME280;9393;42.158;24.748;2023-06-05T08:00:12;100091.72;;;24.98;59.62
18527;BME280;9393;42.158;24.748;2023-06-05T08:03:16;100088.75;;;24.63;60.88
18527;BME280;9393;42.158;24.748;2023-06-05T08:06:24;100083.41;;;24.88;60.19
18527;BME280;9393;42.158;24.748;2023-06-05T08:09:29;100085.16;;;25.48;58.71
18527;BME280;9393;42.158;24.748;2023-06-05T08:12:33;100083.47;;;25.18;59.92
18527;BME280;9393;42.158;24.748;2023-06-05T08:15:37;100072.69;;;25.42;58.73
18527;BME280;9393;42.158;24.748;2023-06-05T08:18:41;100074.25;;;25.68;57.60
18527;BME280;9393;42.158;24.748;2023-06-05T08:21:46;100068.41;;;26.01;56.68
18527;BME280;9393;42.158;24.748;2023-06-05T08:24:50;100062.53;;;25.03;59.39
18527;BME280;9393;42.158;24.748;2023-06-05T08:27:56;100067.53;;;25.11;60.16
18527;BME280;9393;42.158;24.748;2023-06-05T08:31:00;100066.06;;;25.33;58.78
18527;BME280;9393;42.158;24.748;2023-06-05T08:34:04;100067.81;;;25.57;58.24
18527;BME280;9393;42.158;24.748;2023-06-05T08:37:10;100054.75;;;26.21;55.72
18527;BME280;9393;42.158;24.748;2023-06-05T08:40:14;100055.34;;;26.46;54.50
18527;BME280;9393;42.158;24.748;2023-06-05T08:43:20;100051.53;;;26.88;53.64
18527;BME280;9393;42.158;24.748;2023-06-05T08:46:28;100053.53;;;27.21;52.22
18527;BME280;9393;42.158;24.748;2023-06-05T08:49:33;100043.94;;;27.37;51.74
18527;BME280;9393;42.158;24.748;2023-06-05T08:52:42;100052.50;;;27.10;51.91
18527;BME280;9393;42.158;24.748;2023-06-05T08:55:51;100048.72;;;27.46;50.76
18527;BME280;9393;42.158;24.748;2023-06-05T08:58:57;100053.47;;;27.73;50.40
18527;BME280;9393;42.158;24.748;2023-06-05T09:02:01;100052.22;;;26.84;52.00
18527;BME280;9393;42.158;24.748;2023-06-05T09:05:05;100045.06;;;27.13;52.08
18527;BME280;9393;42.158;24.748;2023-06-05T09:08:10;100048.44;;;27.20;51.56
18527;BME280;9393;42.158;24.748;2023-06-05T09:11:22;100042.53;;;27.46;50.57
18527;BME280;9393;42.158;24.748;2023-06-05T09:14:26;100037.53;;;28.11;49.65
18527;BME280;9393;42.158;24.748;2023-06-05T09:17:30;100040.69;;;28.08;49.52
18527;BME280;9393;42.158;24.748;2023-06-05T09:20:34;100035.25;;;28.36;47.77
18527;BME280;9393;42.158;24.748;2023-06-05T09:23:40;100034.16;;;27.87;48.56
18527;BME280;9393;42.158;24.748;2023-06-05T09:26:53;100030.84;;;28.47;47.76
18527;BME280;9393;42.158;24.748;2023-06-05T09:30:02;100034.66;;;28.51;47.93
18527;BME280;9393;42.158;24.748;2023-06-05T09:33:10;100026.16;;;28.37;47.49
18527;BME280;9393;42.158;24.748;2023-06-05T09:36:17;100028.16;;;28.47;46.77
18527;BME280;9393;42.158;24.748;2023-06-05T09:39:23;100020.94;;;28.31;47.50
18527;BME280;9393;42.158;24.748;2023-06-05T09:42:31;100022.47;;;28.43;47.43
18527;BME280;9393;42.158;24.748;2023-06-05T09:45:42;100020.44;;;28.50;47.92
18527;BME280;9393;42.158;24.748;2023-06-05T09:48:52;100006.25;;;28.17;48.53
18527;BME280;9393;42.158;24.748;2023-06-05T09:51:57;100009.38;;;27.64;49.31
18527;BME280;9393;42.158;24.748;2023-06-05T09:55:03;100012.50;;;27.89;48.79
18527;BME280;9393;42.158;24.748;2023-06-05T09:58:12;100003.84;;;28.03;47.50
18527;BME280;9393;42.158;24.748;2023-06-05T10:01:19;100005.16;;;28.34;47.53
18527;BME280;9393;42.158;24.748;2023-06-05T10:04:27;99991.88;;;28.61;46.37
18527;BME280;9393;42.158;24.748;2023-06-05T10:07:31;100003.69;;;28.43;46.16
18527;BME280;9393;42.158;24.748;2023-06-05T10:10:39;99995.47;;;28.88;46.10
18527;BME280;9393;42.158;24.748;2023-06-05T10:13:43;99984.88;;;28.22;47.35
18527;BME280;9393;42.158;24.748;2023-06-05T10:16:50;99988.25;;;28.50;44.56
18527;BME280;9393;42.158;24.748;2023-06-05T10:19:55;99986.41;;;28.18;45.59
18527;BME280;9393;42.158;24.748;2023-06-05T10:22:59;99993.28;;;28.47;45.21
18527;BME280;9393;42.158;24.748;2023-06-05T10:26:11;99988.75;;;28.47;44.03
18527;BME280;9393;42.158;24.748;2023-06-05T10:29:33;99980.28;;;28.77;44.50
18527;BME280;9393;42.158;24.748;2023-06-05T10:32:52;99984.59;;;28.40;45.20
18527;BME280;9393;42.158;24.748;2023-06-05T10:36:05;99965.00;;;28.99;44.47
18527;BME280;9393;42.158;24.748;2023-06-05T10:39:15;99969.88;;;28.81;45.40
18527;BME280;9393;42.158;24.748;2023-06-05T10:42:25;99966.59;;;28.57;45.91
18527;BME280;9393;42.158;24.748;2023-06-05T10:45:30;99969.97;;;28.31;46.32
18527;BME280;9393;42.158;24.748;2023-06-05T10:49:06;99964.41;;;28.16;46.00
18527;BME280;9393;42.158;24.748;2023-06-05T10:52:35;99956.66;;;28.57;45.21
18527;BME280;9393;42.158;24.748;2023-06-05T10:55:41;99948.00;;;29.21;44.55
18527;BME280;9393;42.158;24.748;2023-06-05T10:59:14;99945.94;;;28.79;44.03
18527;BME280;9393;42.158;24.748;2023-06-05T11:02:25;99946.34;;;29.15;43.11
18527;BME280;9393;42.158;24.748;2023-06-05T11:05:29;99949.19;;;29.03;42.80
18527;BME280;9393;42.158;24.748;2023-06-05T11:08:33;99954.13;;;28.89;43.51
18527;BME280;9393;42.158;24.748;2023-06-05T11:11:58;99941.34;;;28.75;43.73
18527;BME280;9393;42.158;24.748;2023-06-05T11:15:05;99939.19;;;28.98;43.47
18527;BME280;9393;42.158;24.748;2023-06-05T11:18:30;99928.75;;;28.37;44.66
18527;BME280;9393;42.158;24.748;2023-06-05T11:22:01;99933.59;;;28.78;45.42
18527;BME280;9393;42.158;24.748;2023-06-05T11:25:25;99932.72;;;28.73;45.47
18527;BME280;9393;42.158;24.748;2023-06-05T11:28:43;99927.81;;;29.40;43.60
18527;BME280;9393;42.158;24.748;2023-06-05T11:31:48;99921.44;;;29.83;42.76
18527;BME280;9393;42.158;24.748;2023-06-05T11:34:53;99923.00;;;29.42;42.77
18527;BME280;9393;42.158;24.748;2023-06-05T11:38:09;99915.31;;;29.24;42.28
18527;BME280;9393;42.158;24.748;2023-06-05T11:41:13;99922.25;;;29.20;42.53
18527;BME280;9393;42.158;24.748;2023-06-05T11:44:30;99921.59;;;28.64;43.45
18527;BME280;9393;42.158;24.748;2023-06-05T11:47:36;99915.44;;;28.85;41.85
18527;BME280;9393;42.158;24.748;2023-06-05T11:50:59;99914.41;;;28.26;43.63
18527;BME280;9393;42.158;24.748;2023-06-05T11:54:03;99911.66;;;28.86;41.40
18527;BME280;9393;42.158;24.748;2023-06-05T11:57:09;99913.06;;;29.16;40.63
18527;BME280;9393;42.158;24.748;2023-06-05T12:00:21;99911.41;;;29.36;39.43
18527;BME280;9393;42.158;24.748;2023-06-05T12:03:27;99913.72;;;29.54;38.90
18527;BME280;9393;42.158;24.748;2023-06-05T12:06:31;99903.38;;;29.41;38.92
18527;BME280;9393;42.158;24.748;2023-06-05T12:09:35;99904.06;;;29.58;38.16
18527;BME280;9393;42.158;24.748;2023-06-05T12:12:49;99899.13;;;28.92;38.79
18527;BME280;9393;42.158;24.748;2023-06-05T12:15:56;99898.31;;;29.18;38.09
18527;BME280;9393;42.158;24.748;2023-06-05T12:19:03;99895.09;;;29.21;37.73
18527;BME280;9393;42.158;24.748;2023-06-05T12:22:17;99905.22;;;28.82;38.68
18527;BME280;9393;42.158;24.748;2023-06-05T12:25:22;99906.81;;;29.10;38.77
18527;BME280;9393;42.158;24.748;2023-06-05T12:28:27;99901.03;;;28.96;39.47
18527;BME280;9393;42.158;24.748;2023-06-05T12:31:34;99891.06;;;28.92;38.08
18527;BME280;9393;42.158;24.748;2023-06-05T12:34:44;99893.25;;;29.22;37.91
18527;BME280;9393;42.158;24.748;2023-06-05T12:37:59;99893.88;;;29.29;37.84
18527;BME280;9393;42.158;24.748;2023-06-05T12:41:03;99890.44;;;29.33;37.51
18527;BME280;9393;42.158;24.748;2023-06-05T12:44:08;99887.25;;;29.41;37.62
18527;BME280;9393;42.158;24.748;2023-06-05T12:47:12;99881.47;;;29.54;37.57
18527;BME280;9393;42.158;24.748;2023-06-05T12:50:17;99887.53;;;28.65;37.85
18527;BME280;9393;42.158;24.748;2023-06-05T12:53:21;99880.22;;;28.82;37.74
18527;BME280;9393;42.158;24.748;2023-06-05T12:56:26;99880.56;;;29.17;37.28
18527;BME280;9393;42.158;24.748;2023-06-05T12:59:31;99866.41;;;28.08;38.74
18527;BME280;9393;42.158;24.748;2023-06-05T13:02:35;99877.91;;;28.25;39.78
18527;BME280;9393;42.158;24.748;2023-06-05T13:05:40;99872.19;;;28.17;38.93
18527;BME280;9393;42.158;24.748;2023-06-05T13:08:44;99881.78;;;28.56;38.16
18527;BME280;9393;42.158;24.748;2023-06-05T13:11:49;99867.97;;;28.91;38.59
18527;BME280;9393;42.158;24.748;2023-06-05T13:14:52;99861.22;;;29.15;37.00
18527;BME280;9393;42.158;24.748;2023-06-05T13:17:56;99859.53;;;29.36;36.94
18527;BME280;9393;42.158;24.748;2023-06-05T13:21:02;99872.69;;;29.32;37.68
18527;BME280;9393;42.158;24.748;2023-06-05T13:24:07;99868.44;;;29.09;37.62
18527;BME280;9393;42.158;24.748;2023-06-05T13:27:11;99868.72;;;29.13;36.42
18527;BME280;9393;42.158;24.748;2023-06-05T13:30:15;99857.25;;;29.23;36.49
18527;BME280;9393;42.158;24.748;2023-06-05T13:33:19;99863.81;;;29.32;36.26
18527;BME280;9393;42.158;24.748;2023-06-05T13:36:24;99856.59;;;29.10;37.14
18527;BME280;9393;42.158;24.748;2023-06-05T13:39:28;99855.63;;;29.22;37.31
18527;BME280;9393;42.158;24.748;2023-06-05T13:42:32;99860.09;;;29.11;37.62
18527;BME280;9393;42.158;24.748;2023-06-05T13:45:36;99858.69;;;29.03;37.72
18527;BME280;9393;42.158;24.748;2023-06-05T13:48:40;99854.06;;;29.57;37.69
18527;BME280;9393;42.158;24.748;2023-06-05T13:51:45;99865.22;;;29.76;37.46
18527;BME280;9393;42.158;24.748;2023-06-05T13:54:49;99860.66;;;29.40;38.24
18527;BME280;9393;42.158;24.748;2023-06-05T13:57:53;99869.50;;;29.14;38.92
18527;BME280;9393;42.158;24.748;2023-06-05T14:00:59;99858.41;;;29.27;38.25
18527;BME280;9393;42.158;24.748;2023-06-05T14:04:03;99851.19;;;29.05;38.43
18527;BME280;9393;42.158;24.748;2023-06-05T14:07:08;99838.41;;;29.18;38.94
18527;BME280;9393;42.158;24.748;2023-06-05T14:10:11;99843.09;;;29.64;39.24
18527;BME280;9393;42.158;24.748;2023-06-05T14:13:15;99843.69;;;29.71;38.70
18527;BME280;9393;42.158;24.748;2023-06-05T14:16:19;99836.97;;;29.05;38.88
18527;BME280;9393;42.158;24.748;2023-06-05T14:19:23;99835.59;;;29.02;38.64
18527;BME280;9393;42.158;24.748;2023-06-05T14:22:29;99843.25;;;29.21;37.85
18527;BME280;9393;42.158;24.748;2023-06-05T14:25:32;99835.38;;;29.36;36.98
18527;BME280;9393;42.158;24.748;2023-06-05T14:28:36;99828.69;;;29.12;36.76
18527;BME280;9393;42.158;24.748;2023-06-05T14:31:40;99830.50;;;29.33;36.85
18527;BME280;9393;42.158;24.748;2023-06-05T14:34:44;99821.28;;;29.24;36.31
18527;BME280;9393;42.158;24.748;2023-06-05T14:37:49;99827.91;;;29.48;35.56
18527;BME280;9393;42.158;24.748;2023-06-05T14:40:53;99820.09;;;29.41;35.47
18527;BME280;9393;42.158;24.748;2023-06-05T14:43:58;99829.75;;;29.10;35.38
18527;BME280;9393;42.158;24.748;2023-06-05T14:47:22;99822.19;;;29.07;35.59
18527;BME280;9393;42.158;24.748;2023-06-05T14:50:26;99818.38;;;28.98;35.19
18527;BME280;9393;42.158;24.748;2023-06-05T14:53:31;99810.78;;;28.90;34.85
18527;BME280;9393;42.158;24.748;2023-06-05T14:56:35;99807.84;;;28.92;34.32
18527;BME280;9393;42.158;24.748;2023-06-05T14:59:40;99799.13;;;28.80;33.61
18527;BME280;9393;42.158;24.748;2023-06-05T15:02:44;99807.34;;;28.46;33.48
18527;BME280;9393;42.158;24.748;2023-06-05T15:05:48;99811.25;;;28.12;33.36
18527;BME280;9393;42.158;24.748;2023-06-05T15:08:53;99812.28;;;28.54;32.58
18527;BME280;9393;42.158;24.748;2023-06-05T15:11:57;99816.75;;;28.49;32.03
18527;BME280;9393;42.158;24.748;2023-06-05T15:15:02;99807.44;;;28.78;31.76
18527;BME280;9393;42.158;24.748;2023-06-05T15:18:22;99809.81;;;28.26;31.56
18527;BME280;9393;42.158;24.748;2023-06-05T15:21:26;99814.56;;;28.02;31.89
18527;BME280;9393;42.158;24.748;2023-06-05T15:24:33;99817.97;;;27.76;31.58
18527;BME280;9393;42.158;24.748;2023-06-05T15:27:36;99805.81;;;28.07;30.05
18527;BME280;9393;42.158;24.748;2023-06-05T15:30:41;99811.69;;;28.26;29.55
18527;BME280;9393;42.158;24.748;2023-06-05T15:33:45;99805.91;;;28.17;30.48
18527;BME280;9393;42.158;24.748;2023-06-05T15:36:48;99814.41;;;27.71;30.45
18527;BME280;9393;42.158;24.748;2023-06-05T15:39:54;99808.09;;;27.98;30.37
18527;BME280;9393;42.158;24.748;2023-06-05T15:43:05;99811.16;;;28.07;30.35
18527;BME280;9393;42.158;24.748;2023-06-05T15:46:10;99807.50;;;28.13;30.06
18527;BME280;9393;42.158;24.748;2023-06-05T15:49:13;99809.50;;;27.84;30.54
18527;BME280;9393;42.158;24.748;2023-06-05T15:52:17;99807.19;;;28.09;30.79
18527;BME280;9393;42.158;24.748;2023-06-05T15:55:22;99817.25;;;28.02;31.27
18527;BME280;9393;42.158;24.748;2023-06-05T15:58:26;99812.22;;;27.68;31.23
18527;BME280;9393;42.158;24.748;2023-06-05T16:01:30;99802.78;;;27.65;31.31
18527;BME280;9393;42.158;24.748;2023-06-05T16:04:34;99811.72;;;27.71;31.66
18527;BME280;9393;42.158;24.748;2023-06-05T16:07:38;99809.84;;;27.38;31.75
18527;BME280;9393;42.158;24.748;2023-06-05T16:10:43;99812.47;;;27.16;32.11
18527;BME280;9393;42.158;24.748;2023-06-05T16:13:47;99804.34;;;27.28;32.10
18527;BME280;9393;42.158;24.748;2023-06-05T16:16:51;99809.63;;;27.06;32.19